sensor_id;sensor_type;location;lat;lon;timestamp;P1;P2;P0
74436;PMS7003;62868;52.360;30.424;2023-02-01T00:01:39;0;0;0
74436;PMS7003;62868;52.360;30.424;2023-02-01T00:06:19;0;0;0
74436;PMS7003;62868;52.360;30.424;2023-02-01T00:11:17;0;0;0
74436;PMS7003;62868;52.360;30.424;2023-02-01T00:16:31;0;0;0
74436;PMS7003;62868;52.360;30.424;2023-02-01T00:21:55;0;0;0
74436;PMS7003;62868;52.360;30.424;2023-02-01T00:26:18;0;0;0
74436;PMS7003;62868;52.360;30.424;2023-02-01T00:31:39;0.5;0;0
74436;PMS7003;62868;52.360;30.424;2023-02-01T00:36:43;0;0;0
74436;PMS7003;62868;52.360;30.424;2023-02-01T00:41:07;0;0;0
74436;PMS7003;62868;52.360;30.424;2023-02-01T00:46:17;0;0;0
74436;PMS7003;62868;52.360;30.424;2023-02-01T00:51:08;0;0;0
74436;PMS7003;62868;52.360;30.424;2023-02-01T00:56:53;0;0;0
74436;PMS7003;62868;52.360;30.424;2023-02-01T01:01:53;0;0;0
74436;PMS7003;62868;52.360;30.424;2023-02-01T01:06:32;0.3;0;0
74436;PMS7003;62868;52.360;30.424;2023-02-01T01:11:55;0;0;0
74436;PMS7003;62868;52.360;30.424;2023-02-01T01:16:57;0;0;0
74436;PMS7003;62868;52.360;30.424;2023-02-01T01:21:31;0;0;0
74436;PMS7003;62868;52.360;30.424;2023-02-01T01:26:33;0;0;0
74436;PMS7003;62868;52.360;30.424;2023-02-01T01:31:55;0;0;0
74436;PMS7003;62868;52.360;30.424;2023-02-01T01:36:07;0.3;0;0
74436;PMS7003;62868;52.360;30.424;2023-02-01T01:41:22;0;0;0
74436;PMS7003;62868;52.360;30.424;2023-02-01T01:46:20;0;0;0
74436;PMS7003;62868;52.360;30.424;2023-02-01T01:51:43;0;0;0
74436;PMS7003;62868;52.360;30.424;2023-02-01T01:56:43;0;0;0
74436;PMS7003;62868;52.360;30.424;2023-02-01T02:01:29;0;0;0
74436;PMS7003;62868;52.360;30.424;2023-02-01T02:06:56;0.3;0;0
74436;PMS7003;62868;52.360;30.424;2023-02-01T02:11:31;0;0;0
74436;PMS7003;62868;52.360;30.424;2023-02-01T02:16:48;0;0;0
74436;PMS7003;62868;52.360;30.424;2023-02-01T02:21:10;0;0;0
74436;PMS7003;62868;52.360;30.424;2023-02-01T02:26:46;0.3;0;0
74436;PMS7003;62868;52.360;30.424;2023-02-01T02:31:40;0;0;0
74436;PMS7003;62868;52.360;30.424;2023-02-01T02:36:36;0;0;0
74436;PMS7003;62868;52.360;30.424;2023-02-01T02:41:34;0;0;0
74436;PMS7003;62868;52.360;30.424;2023-02-01T02:46:20;0;0;0
74436;PMS7003;62868;52.360;30.424;2023-02-01T02:51:44;0;0;0
74436;PMS7003;62868;52.360;30.424;2023-02-01T02:56:31;0.3;0;0
74436;PMS7003;62868;52.360;30.424;2023-02-01T03:01:53;0.3;0;0
74436;PMS7003;62868;52.360;30.424;2023-02-01T03:06:31;0;0;0
74436;PMS7003;62868;52.360;30.424;2023-02-01T03:11:56;0.3;0;0
74436;PMS7003;62868;52.360;30.424;2023-02-01T03:16:08;0.3;0;0
74436;PMS7003;62868;52.360;30.424;2023-02-01T03:21:46;0;0;0
74436;PMS7003;62868;52.360;30.424;2023-02-01T03:26:30;0;0;0
74436;PMS7003;62868;52.360;30.424;2023-02-01T03:31:21;0;0;0
74436;PMS7003;62868;52.360;30.424;2023-02-01T03:36:56;0;0;0
74436;PMS7003;62868;52.360;30.424;2023-02-01T03:41:41;0.3;0;0
74436;PMS7003;62868;52.360;30.424;2023-02-01T03:46:56;0;0;0
74436;PMS7003;62868;52.360;30.424;2023-02-01T03:51:31;0;0;0
74436;PMS7003;62868;52.360;30.424;2023-02-01T03:56:37;0;0;0
74436;PMS7003;62868;52.360;30.424;2023-02-01T04:01:35;0.3;0;0
74436;PMS7003;62868;52.360;30.424;2023-02-01T04:06:43;0;0;0
74436;PMS7003;62868;52.360;30.424;2023-02-01T04:11:17;0;0;0
74436;PMS7003;62868;52.360;30.424;2023-02-01T04:16:43;0;0;0
74436;PMS7003;62868;52.360;30.424;2023-02-01T04:21:33;0;0;0
74436;PMS7003;62868;52.360;30.424;2023-02-01T04:26:43;0;0;0
74436;PMS7003;62868;52.360;30.424;2023-02-01T04:31:51;0;0;0
74436;PMS7003;62868;52.360;30.424;2023-02-01T04:36:55;0;0;0
74436;PMS7003;62868;52.360;30.424;2023-02-01T04:41:53;0;0;0
74436;PMS7003;62868;52.360;30.424;2023-02-01T04:46:41;0;0;0
74436;PMS7003;62868;52.360;30.424;2023-02-01T04:51:55;0;0;0
74436;PMS7003;62868;52.360;30.424;2023-02-01T04:56:19;0;0;0
74436;PMS7003;62868;52.360;30.424;2023-02-01T05:01:41;0;0;0
74436;PMS7003;62868;52.360;30.424;2023-02-01T05:06:17;0.3;0;0
74436;PMS7003;62868;52.360;30.424;2023-02-01T05:11:43;0;0;0
74436;PMS7003;62868;52.360;30.424;2023-02-01T05:16:33;0;0;0
74436;PMS7003;62868;52.360;30.424;2023-02-01T05:21:59;0.3;0;0
74436;PMS7003;62868;52.360;30.424;2023-02-01T05:26:07;0;0;0
74436;PMS7003;62868;52.360;30.424;2023-02-01T05:31:51;0;0;0
74436;PMS7003;62868;52.360;30.424;2023-02-01T05:36:43;0.3;0;0
74436;PMS7003;62868;52.360;30.424;2023-02-01T05:41:35;0.3;0;0
74436;PMS7003;62868;52.360;30.424;2023-02-01T05:46:57;0.3;0;0
74436;PMS7003;62868;52.360;30.424;2023-02-01T05:51:07;0.7;0;0
74436;PMS7003;62868;52.360;30.424;2023-02-01T05:56:57;0;0;0
74436;PMS7003;62868;52.360;30.424;2023-02-01T06:01:19;0;0;0
74436;PMS7003;62868;52.360;30.424;2023-02-01T06:06:19;0;0;0
74436;PMS7003;62868;52.360;30.424;2023-02-01T06:11:07;0;0;0
74436;PMS7003;62868;52.360;30.424;2023-02-01T06:16:55;0;0;0
74436;PMS7003;62868;52.360;30.424;2023-02-01T06:21:19;0.3;0;0
74436;PMS7003;62868;52.360;30.424;2023-02-01T06:26:55;0;0;0
74436;PMS7003;62868;52.360;30.424;2023-02-01T06:31:31;0.3;0.3;0
74436;PMS7003;62868;52.360;30.424;2023-02-01T06:36:07;0.3;0;0
74436;PMS7003;62868;52.360;30.424;2023-02-01T06:41:31;0;0;0
74436;PMS7003;62868;52.360;30.424;2023-02-01T06:46:33;0.3;0;0
74436;PMS7003;62868;52.360;30.424;2023-02-01T06:51:41;0;0;0
74436;PMS7003;62868;52.360;30.424;2023-02-01T06:56:08;0.3;0;0
74436;PMS7003;62868;52.360;30.424;2023-02-01T07:01:08;0;0;0
74436;PMS7003;62868;52.360;30.424;2023-02-01T07:06:07;0.3;0;0
74436;PMS7003;62868;52.360;30.424;2023-02-01T07:11:57;0.8;0.3;0
74436;PMS7003;62868;52.360;30.424;2023-02-01T07:16:33;0.7;0.3;0
74436;PMS7003;62868;52.360;30.424;2023-02-01T07:21:33;0.7;0.3;0
74436;PMS7003;62868;52.360;30.424;2023-02-01T07:26:31;0;0;0
74436;PMS7003;62868;52.360;30.424;2023-02-01T07:31:23;0.8;0;0
74436;PMS7003;62868;52.360;30.424;2023-02-01T07:36:35;0.7;0;0
74436;PMS7003;62868;52.360;30.424;2023-02-01T07:41:23;0;0;0
74436;PMS7003;62868;52.360;30.424;2023-02-01T07:47:01;0;0;0
74436;PMS7003;62868;52.360;30.424;2023-02-01T07:51:57;0.3;0;0
74436;PMS7003;62868;52.360;30.424;2023-02-01T07:56:33;0.3;0;0
74436;PMS7003;62868;52.360;30.424;2023-02-01T08:01:55;0.7;0;0
74436;PMS7003;62868;52.360;30.424;2023-02-01T08:06:55;0.7;0;0
74436;PMS7003;62868;52.360;30.424;2023-02-01T08:11:31;0;0;0
74436;PMS7003;62868;52.360;30.424;2023-02-01T08:16:23;0.7;0;0
74436;PMS7003;62868;52.360;30.424;2023-02-01T08:21:59;0;0;0
74436;PMS7003;62868;52.360;30.424;2023-02-01T08:26:22;0.3;0;0
74436;PMS7003;62868;52.360;30.424;2023-02-01T08:31:35;0.5;0;0
74436;PMS7003;62868;52.360;30.424;2023-02-01T08:36:45;0;0;0
74436;PMS7003;62868;52.360;30.424;2023-02-01T08:41:43;0.3;0;0
74436;PMS7003;62868;52.360;30.424;2023-02-01T08:46:47;0.3;0;0
74436;PMS7003;62868;52.360;30.424;2023-02-01T08:51:19;1.3;0.7;0
74436;PMS7003;62868;52.360;30.424;2023-02-01T08:56:23;0;0;0
74436;PMS7003;62868;52.360;30.424;2023-02-01T09:01:08;0;0;0
74436;PMS7003;62868;52.360;30.424;2023-02-01T09:06:47;0.5;0.5;0.3
74436;PMS7003;62868;52.360;30.424;2023-02-01T09:11:08;1.7;1.3;0.7
74436;PMS7003;62868;52.360;30.424;2023-02-01T09:16:43;0.7;0.7;0.3
74436;PMS7003;62868;52.360;30.424;2023-02-01T09:21:07;1;0.3;0.3
74436;PMS7003;62868;52.360;30.424;2023-02-01T09:26:55;1.3;1;0.8
74436;PMS7003;62868;52.360;30.424;2023-02-01T09:31:41;1.3;0.7;0.3
74436;PMS7003;62868;52.360;30.424;2023-02-01T09:36:55;1.7;1.3;0.3
74436;PMS7003;62868;52.360;30.424;2023-02-01T09:41:59;1.3;0.3;0.3
74436;PMS7003;62868;52.360;30.424;2023-02-01T09:46:32;1.8;1.5;1.5
74436;PMS7003;62868;52.360;30.424;2023-02-01T09:51:57;3.7;2;1
74436;PMS7003;62868;52.360;30.424;2023-02-01T09:56:10;4;2.3;1
74436;PMS7003;62868;52.360;30.424;2023-02-01T10:01:41;3.3;2.3;1.3
74436;PMS7003;62868;52.360;30.424;2023-02-01T10:06:16;2.3;1.5;1
74436;PMS7003;62868;52.360;30.424;2023-02-01T10:11:51;3;1;0.7
74436;PMS7003;62868;52.360;30.424;2023-02-01T10:16:17;2;1.3;1
74436;PMS7003;62868;52.360;30.424;2023-02-01T10:21:37;3.7;2.7;1.7
74436;PMS7003;62868;52.360;30.424;2023-02-01T10:26:36;3.5;3.3;1.8
74436;PMS7003;62868;52.360;30.424;2023-02-01T10:31:41;2;1.3;1.3
74436;PMS7003;62868;52.360;30.424;2023-02-01T10:37:00;3.3;2.7;1.3
74436;PMS7003;62868;52.360;30.424;2023-02-01T10:41:08;2.3;1.5;0.8
74436;PMS7003;62868;52.360;30.424;2023-02-01T10:47:01;1.3;0.7;0.3
74436;PMS7003;62868;52.360;30.424;2023-02-01T10:51:38;1.7;1.3;0.7
74436;PMS7003;62868;52.360;30.424;2023-02-01T10:56:48;1.3;1;1
74436;PMS7003;62868;52.360;30.424;2023-02-01T11:01:07;1.3;1;0.8
74436;PMS7003;62868;52.360;30.424;2023-02-01T11:06:39;2;1.3;1
74436;PMS7003;62868;52.360;30.424;2023-02-01T11:11:23;2.7;1.3;0.7
74436;PMS7003;62868;52.360;30.424;2023-02-01T11:16:46;1.7;1.3;1
74436;PMS7003;62868;52.360;30.424;2023-02-01T11:21:48;1;0.5;0
74436;PMS7003;62868;52.360;30.424;2023-02-01T11:26:58;2;1;0.5
74436;PMS7003;62868;52.360;30.424;2023-02-01T11:31:55;0.8;0.8;0
74436;PMS7003;62868;52.360;30.424;2023-02-01T11:36:44;1.3;1.3;0.7
74436;PMS7003;62868;52.360;30.424;2023-02-01T11:41:59;0.7;0.7;0.3
74436;PMS7003;62868;52.360;30.424;2023-02-01T11:46:08;0.7;0.3;0
74436;PMS7003;62868;52.360;30.424;2023-02-01T11:51:47;1.3;0.5;0
74436;PMS7003;62868;52.360;30.424;2023-02-01T11:56:19;0.3;0;0
74436;PMS7003;62868;52.360;30.424;2023-02-01T12:01:52;1;0.3;0.3
74436;PMS7003;62868;52.360;30.424;2023-02-01T12:06:47;1.7;1.3;1
74436;PMS7003;62868;52.360;30.424;2023-02-01T12:11:59;0.5;0.5;0.5
74436;PMS7003;62868;52.360;30.424;2023-02-01T12:16:10;1;0.3;0.3
74436;PMS7003;62868;52.360;30.424;2023-02-01T12:22:11;1.7;1;0.3
74436;PMS7003;62868;52.360;30.424;2023-02-01T12:26:11;1.7;1;1
74436;PMS7003;62868;52.360;30.424;2023-02-01T12:31:11;1.8;0.8;0.8
74436;PMS7003;62868;52.360;30.424;2023-02-01T12:36:36;3;3;1
74436;PMS7003;62868;52.360;30.424;2023-02-01T12:41:11;2.3;2.3;1
74436;PMS7003;62868;52.360;30.424;2023-02-01T12:46:49;1;0.5;0.3
74436;PMS7003;62868;52.360;30.424;2023-02-01T12:51:08;2.7;2;1
74436;PMS7003;62868;52.360;30.424;2023-02-01T12:57:02;2;1.7;1.3
74436;PMS7003;62868;52.360;30.424;2023-02-01T13:01:09;1;1;1
74436;PMS7003;62868;52.360;30.424;2023-02-01T13:06:59;2;1.5;0.8
74436;PMS7003;62868;52.360;30.424;2023-02-01T13:11:36;1.3;0.7;0.3
74436;PMS7003;62868;52.360;30.424;2023-02-01T13:16:47;1;0.7;0.7
74436;PMS7003;62868;52.360;30.424;2023-02-01T13:21:36;2.7;1;0.3
74436;PMS7003;62868;52.360;30.424;2023-02-01T13:26:21;0.5;0.5;0
74436;PMS7003;62868;52.360;30.424;2023-02-01T13:31:24;0.3;0.3;0
74436;PMS7003;62868;52.360;30.424;2023-02-01T13:36:42;1.3;0.7;0
74436;PMS7003;62868;52.360;30.424;2023-02-01T13:41:55;0.3;0;0
74436;PMS7003;62868;52.360;30.424;2023-02-01T13:46:58;1;0.8;0.3
74436;PMS7003;62868;52.360;30.424;2023-02-01T13:51:35;1.3;1;0.3
74436;PMS7003;62868;52.360;30.424;2023-02-01T13:56:39;2.3;2;1
74436;PMS7003;62868;52.360;30.424;2023-02-01T14:01:57;0.7;0.3;0
74436;PMS7003;62868;52.360;30.424;2023-02-01T14:06:32;1.3;1;0.3
74436;PMS7003;62868;52.360;30.424;2023-02-01T14:11:08;1;1;0.3
74436;PMS7003;62868;52.360;30.424;2023-02-01T14:17:29;1.7;0.7;0.7
74436;PMS7003;62868;52.360;30.424;2023-02-01T14:21:24;1;0.3;0
74436;PMS7003;62868;52.360;30.424;2023-02-01T14:26:18;1;0.3;0
74436;PMS7003;62868;52.360;30.424;2023-02-01T14:31:35;0.7;0.7;0.3
74436;PMS7003;62868;52.360;30.424;2023-02-01T14:36:57;0.3;0.3;0
74436;PMS7003;62868;52.360;30.424;2023-02-01T14:41:47;0.8;0.3;0
74436;PMS7003;62868;52.360;30.424;2023-02-01T14:47:39;0.7;0.3;0
74436;PMS7003;62868;52.360;30.424;2023-02-01T14:51:57;0.7;0.3;0.3
74436;PMS7003;62868;52.360;30.424;2023-02-01T14:56:59;0.7;0.3;0.3
74436;PMS7003;62868;52.360;30.424;2023-02-01T15:01:34;0.8;0.5;0
74436;PMS7003;62868;52.360;30.424;2023-02-01T15:06:13;0.7;0.3;0
74436;PMS7003;62868;52.360;30.424;2023-02-01T15:11:56;1.3;1;0.7
74436;PMS7003;62868;52.360;30.424;2023-02-01T15:16:22;0.7;0;0
74436;PMS7003;62868;52.360;30.424;2023-02-01T15:21:41;0.5;0.3;0
74436;PMS7003;62868;52.360;30.424;2023-02-01T15:26:24;1.3;0.3;0
74436;PMS7003;62868;52.360;30.424;2023-02-01T15:31:44;0.7;0;0
74436;PMS7003;62868;52.360;30.424;2023-02-01T15:36:45;0;0;0
74436;PMS7003;62868;52.360;30.424;2023-02-01T15:41:08;0;0;0
74436;PMS7003;62868;52.360;30.424;2023-02-01T15:46:59;0.7;0.3;0
74436;PMS7003;62868;52.360;30.424;2023-02-01T15:51:11;0.3;0;0
74436;PMS7003;62868;52.360;30.424;2023-02-01T15:56:49;0.7;0;0
74436;PMS7003;62868;52.360;30.424;2023-02-01T16:01:23;0.3;0.3;0
74436;PMS7003;62868;52.360;30.424;2023-02-01T16:06:48;0.3;0;0
74436;PMS7003;62868;52.360;30.424;2023-02-01T16:11:30;0;0;0
74436;PMS7003;62868;52.360;30.424;2023-02-01T16:16:07;0;0;0
74436;PMS7003;62868;52.360;30.424;2023-02-01T16:21:41;0;0;0
74436;PMS7003;62868;52.360;30.424;2023-02-01T16:26:43;0;0;0
74436;PMS7003;62868;52.360;30.424;2023-02-01T16:31:57;0;0;0
74436;PMS7003;62868;52.360;30.424;2023-02-01T16:36:31;0.3;0;0
74436;PMS7003;62868;52.360;30.424;2023-02-01T16:41:55;0;0;0
74436;PMS7003;62868;52.360;30.424;2023-02-01T16:46:20;0.3;0;0
74436;PMS7003;62868;52.360;30.424;2023-02-01T16:51:33;0.3;0;0
74436;PMS7003;62868;52.360;30.424;2023-02-01T16:56:10;0.5;0;0
74436;PMS7003;62868;52.360;30.424;2023-02-01T17:01:29;0.3;0;0
74436;PMS7003;62868;52.360;30.424;2023-02-01T17:06:43;0.3;0;0
74436;PMS7003;62868;52.360;30.424;2023-02-01T17:11:43;0.3;0;0
74436;PMS7003;62868;52.360;30.424;2023-02-01T17:16:45;0.5;0;0
74436;PMS7003;62868;52.360;30.424;2023-02-01T17:21:57;0.3;0;0
74436;PMS7003;62868;52.360;30.424;2023-02-01T17:26:55;0.7;0.3;0
74436;PMS7003;62868;52.360;30.424;2023-02-01T17:31:31;0.3;0;0
74436;PMS7003;62868;52.360;30.424;2023-02-01T17:36:57;1;0;0
74436;PMS7003;62868;52.360;30.424;2023-02-01T17:41:35;0.3;0;0
74436;PMS7003;62868;52.360;30.424;2023-02-01T17:46:43;0;0;0
74436;PMS7003;62868;52.360;30.424;2023-02-01T17:51:12;0.3;0.3;0
74436;PMS7003;62868;52.360;30.424;2023-02-01T17:56:45;0.3;0.3;0
74436;PMS7003;62868;52.360;30.424;2023-02-01T18:01:35;0.3;0;0
74436;PMS7003;62868;52.360;30.424;2023-02-01T18:06:57;0.7;0.3;0
74436;PMS7003;62868;52.360;30.424;2023-02-01T18:11:33;0;0;0
74436;PMS7003;62868;52.360;30.424;2023-02-01T18:16:59;0.3;0;0
74436;PMS7003;62868;52.360;30.424;2023-02-01T18:21:57;0;0;0
74436;PMS7003;62868;52.360;30.424;2023-02-01T18:26:08;0;0;0
74436;PMS7003;62868;52.360;30.424;2023-02-01T18:31:31;0;0;0
74436;PMS7003;62868;52.360;30.424;2023-02-01T18:36:07;0.3;0;0
74436;PMS7003;62868;52.360;30.424;2023-02-01T18:41:47;0.7;0.3;0
74436;PMS7003;62868;52.360;30.424;2023-02-01T18:46:07;0.7;0;0
74436;PMS7003;62868;52.360;30.424;2023-02-01T18:51:31;0.5;0.3;0
74436;PMS7003;62868;52.360;30.424;2023-02-01T18:56:33;0.7;0.3;0
74436;PMS7003;62868;52.360;30.424;2023-02-01T19:01:55;1.7;1;0.3
74436;PMS7003;62868;52.360;30.424;2023-02-01T19:06:53;0.7;0;0
74436;PMS7003;62868;52.360;30.424;2023-02-01T19:11:41;0;0;0
74436;PMS7003;62868;52.360;30.424;2023-02-01T19:16:31;0.7;0.3;0
74436;PMS7003;62868;52.360;30.424;2023-02-01T19:21:08;0.3;0.3;0
74436;PMS7003;62868;52.360;30.424;2023-02-01T19:26:19;1;0.7;0
74436;PMS7003;62868;52.360;30.424;2023-02-01T19:31:21;0.8;0.3;0
74436;PMS7003;62868;52.360;30.424;2023-02-01T19:36:57;0.3;0;0
74436;PMS7003;62868;52.360;30.424;2023-02-01T19:41:57;0.7;0;0
74436;PMS7003;62868;52.360;30.424;2023-02-01T19:46:21;0.3;0;0
74436;PMS7003;62868;52.360;30.424;2023-02-01T19:51:49;0;0;0
74436;PMS7003;62868;52.360;30.424;2023-02-01T19:56:57;0.3;0.3;0
74436;PMS7003;62868;52.360;30.424;2023-02-01T20:01:35;0.7;0;0
74436;PMS7003;62868;52.360;30.424;2023-02-01T20:06:15;0.7;0;0
74436;PMS7003;62868;52.360;30.424;2023-02-01T20:11:41;1.3;0;0
74436;PMS7003;62868;52.360;30.424;2023-02-01T20:16:17;0;0;0
74436;PMS7003;62868;52.360;30.424;2023-02-01T20:21:19;0.7;0;0
74436;PMS7003;62868;52.360;30.424;2023-02-01T20:26:21;0.3;0;0
74436;PMS7003;62868;52.360;30.424;2023-02-01T20:31:43;0;0;0
74436;PMS7003;62868;52.360;30.424;2023-02-01T20:36:43;0;0;0
74436;PMS7003;62868;52.360;30.424;2023-02-01T20:41:41;0.3;0;0
74436;PMS7003;62868;52.360;30.424;2023-02-01T20:46:57;0.3;0.3;0
74436;PMS7003;62868;52.360;30.424;2023-02-01T20:51:05;0;0;0
74436;PMS7003;62868;52.360;30.424;2023-02-01T20:56:37;0;0;0
74436;PMS7003;62868;52.360;30.424;2023-02-01T21:01:23;0;0;0
74436;PMS7003;62868;52.360;30.424;2023-02-01T21:06:45;0;0;0
74436;PMS7003;62868;52.360;30.424;2023-02-01T21:11:41;0;0;0
74436;PMS7003;62868;52.360;30.424;2023-02-01T21:16:33;0;0;0
74436;PMS7003;62868;52.360;30.424;2023-02-01T21:21:43;0;0;0
74436;PMS7003;62868;52.360;30.424;2023-02-01T21:26:45;0;0;0
74436;PMS7003;62868;52.360;30.424;2023-02-01T21:31:47;0;0;0
74436;PMS7003;62868;52.360;30.424;2023-02-01T21:36:15;0;0;0
74436;PMS7003;62868;52.360;30.424;2023-02-01T21:41:57;0.3;0;0
74436;PMS7003;62868;52.360;30.424;2023-02-01T21:46:07;0;0;0
74436;PMS7003;62868;52.360;30.424;2023-02-01T21:51:43;0;0;0
74436;PMS7003;62868;52.360;30.424;2023-02-01T21:56:21;0;0;0
74436;PMS7003;62868;52.360;30.424;2023-02-01T22:01:45;0;0;0
74436;PMS7003;62868;52.360;30.424;2023-02-01T22:06:20;0;0;0
74436;PMS7003;62868;52.360;30.424;2023-02-01T22:11:41;0;0;0
74436;PMS7003;62868;52.360;30.424;2023-02-01T22:16:43;0;0;0
74436;PMS7003;62868;52.360;30.424;2023-02-01T22:21:59;0;0;0
74436;PMS7003;62868;52.360;30.424;2023-02-01T22:26:59;0;0;0
74436;PMS7003;62868;52.360;30.424;2023-02-01T22:31:29;0;0;0
74436;PMS7003;62868;52.360;30.424;2023-02-01T22:36:55;0;0;0
74436;PMS7003;62868;52.360;30.424;2023-02-01T22:41:07;0;0;0
74436;PMS7003;62868;52.360;30.424;2023-02-01T22:46:41;0;0;0
74436;PMS7003;62868;52.360;30.424;2023-02-01T22:51:20;0;0;0
74436;PMS7003;62868;52.360;30.424;2023-02-01T22:56:45;0;0;0
74436;PMS7003;62868;52.360;30.424;2023-02-01T23:01:19;0;0;0
74436;PMS7003;62868;52.360;30.424;2023-02-01T23:06:39;0;0;0
74436;PMS7003;62868;52.360;30.424;2023-02-01T23:11:41;0;0;0
74436;PMS7003;62868;52.360;30.424;2023-02-01T23:16:51;0;0;0
74436;PMS7003;62868;52.360;30.424;2023-02-01T23:21:53;0;0;0
74436;PMS7003;62868;52.360;30.424;2023-02-01T23:26:15;0;0;0
74436;PMS7003;62868;52.360;30.424;2023-02-01T23:31:53;0;0;0
74436;PMS7003;62868;52.360;30.424;2023-02-01T23:36:33;0;0;0
74436;PMS7003;62868;52.360;30.424;2023-02-01T23:41:39;0;0;0
74436;PMS7003;62868;52.360;30.424;2023-02-01T23:46:07;0;0;0
74436;PMS7003;62868;52.360;30.424;2023-02-01T23:51:31;0;0;0
74436;PMS7003;62868;52.360;30.424;2023-02-01T23:56:32;0;0;0
